createdAt,value
2018-07-20T08:44:07.655Z,0.3
2018-07-20T08:44:12.745Z,0.4
2018-07-20T08:44:17.801Z,0.4
2018-07-20T08:44:22.876Z,0.4
2018-07-20T08:44:27.994Z,54.4
2018-07-20T08:44:33.045Z,90
2018-07-20T08:44:38.126Z,75.9
2018-07-20T08:44:43.227Z,87
2018-07-20T08:44:48.285Z,0.3
2018-07-20T08:45:35.435Z,20
2018-07-20T08:45:40.545Z,0.3
2018-07-20T08:45:45.626Z,0.5
2018-07-20T08:45:50.686Z,0.4
2018-07-20T08:45:55.761Z,0.4
2018-07-20T08:46:00.865Z,0.4
2018-07-20T08:46:05.945Z,0.4
2018-07-20T08:46:11.008Z,0.3
2018-07-20T08:46:16.106Z,0.3
2018-07-20T08:46:25.185Z,0.2
2018-07-20T08:46:30.266Z,0.5
2018-07-20T08:46:35.345Z,0.5
2018-07-20T08:46:40.426Z,0.3
2018-07-20T08:46:52.865Z,0.4
2018-07-20T08:46:57.916Z,0.5
2018-07-20T08:47:28.447Z,0.4
2018-07-20T08:48:02.840Z,0.2
2018-07-20T08:48:36.585Z,0.4
2018-07-20T08:48:41.685Z,0.4
2018-07-20T08:50:31.708Z,0.4
2018-07-20T08:55:52.496Z,0.3
2018-07-20T08:55:57.561Z,0.3
2018-07-20T08:56:02.666Z,0.3
2018-07-20T08:56:07.747Z,0.3
2018-07-20T09:22:42.385Z,0.5
2018-07-20T09:22:47.469Z,0.4
2018-07-20T09:23:23.188Z,0.4
2018-07-20T09:23:28.276Z,0.4
2018-07-20T09:23:32.918Z,0.3
2018-07-20T09:23:38.035Z,0.5
2018-07-20T09:23:43.036Z,0.4
2018-07-20T09:23:48.158Z,0.3
2018-07-20T09:23:53.237Z,0.5
2018-07-20T09:24:41.927Z,0.5
2018-07-20T09:24:46.998Z,0.4
2018-07-20T09:24:52.069Z,0.3
2018-07-20T09:25:01.575Z,0.5
2018-07-20T09:28:17.350Z,0.5
2018-07-20T09:30:24.990Z,0.3
2018-07-20T09:30:30.128Z,0.5
2018-07-20T09:30:35.194Z,0.2
2018-07-20T09:30:40.280Z,0.3
2018-07-20T09:31:14.578Z,0.3
2018-07-20T09:31:19.631Z,0.4
2018-07-20T09:31:24.713Z,0.4
2018-07-20T09:31:29.755Z,0.4
2018-07-20T09:31:34.826Z,0.4
2018-07-20T09:33:02.468Z,0.4
2018-07-20T09:33:52.627Z,0.4
2018-07-20T09:34:12.795Z,0.4
2018-07-20T09:37:46.458Z,0.5
2018-07-20T09:37:51.527Z,0.3
2018-07-20T09:38:15.987Z,0.5
2018-07-20T09:38:21.116Z,0.5
2018-07-20T09:38:26.146Z,0.3
2018-07-20T09:38:31.227Z,0.5
2018-07-20T09:38:36.307Z,0.5
2018-07-20T09:38:41.347Z,0.5
2018-07-20T09:38:46.447Z,0.2
2018-07-20T09:39:06.557Z,0.5
2018-07-20T09:40:52.126Z,0.4
2018-07-20T09:41:12.086Z,0.4
2018-07-20T09:41:17.166Z,0.5
2018-07-20T09:41:22.257Z,0.4
2018-07-20T09:41:27.336Z,0.3
2018-07-20T09:41:32.456Z,0.4
2018-07-20T09:42:13.136Z,0.3
2018-07-20T09:42:18.167Z,0.4
2018-07-20T09:42:23.296Z,0.4
2018-07-20T09:42:28.326Z,0.4
2018-07-20T09:42:33.426Z,0.2
2018-07-20T09:42:38.546Z,0.4
2018-07-20T09:42:43.626Z,0.4
2018-07-20T09:42:48.666Z,0.4
2018-07-20T09:42:53.736Z,0.5
2018-07-20T09:42:58.816Z,0.4
2018-07-20T09:43:03.926Z,0.4
2018-07-20T09:43:09.025Z,0.3
2018-07-20T09:43:14.066Z,0.3
2018-07-20T09:43:19.146Z,0.3
2018-07-20T09:43:24.256Z,0.4
2018-07-20T09:43:29.357Z,0.5
2018-07-20T09:43:34.446Z,0.3
2018-07-20T09:43:39.536Z,0.4
2018-07-20T09:43:44.626Z,0.5
2018-07-20T09:43:49.687Z,0.3
2018-07-20T09:43:54.806Z,0.5
2018-07-20T09:43:59.856Z,0.5
2018-07-20T09:44:04.976Z,0.4
2018-07-20T09:44:10.026Z,0.5
2018-07-20T09:44:30.166Z,0.3
2018-07-20T09:44:35.306Z,0.6
2018-07-20T09:44:55.366Z,0.5
2018-07-20T09:45:30.647Z,0.3
2018-07-20T09:45:50.776Z,0.4
2018-07-20T09:47:08.964Z,0.1
2018-07-20T09:47:44.134Z,0.5
2018-07-20T09:48:34.312Z,0.6
2018-07-20T09:49:59.592Z,0.3
2018-07-20T09:50:04.662Z,0.4
2018-07-20T09:50:24.763Z,0.2
2018-07-20T09:50:59.932Z,0.5
2018-07-20T09:51:05.012Z,0.3
2018-07-20T09:51:10.102Z,0.1
2018-07-20T09:51:15.172Z,0.3
2018-07-20T09:51:20.242Z,0.2
2018-07-20T09:52:46.621Z,32.4
2018-07-20T09:53:38.980Z,15.6
2018-07-20T09:53:59.011Z,0.4
2018-07-20T09:54:04.071Z,0.3
2018-07-20T09:54:24.250Z,0.4
2018-07-20T09:54:29.281Z,0.3
2018-07-20T09:54:34.342Z,0.2
2018-07-20T09:54:39.410Z,0.3
2018-07-20T09:54:44.491Z,0.5
2018-07-20T09:54:49.600Z,0.4
2018-07-20T09:55:24.771Z,0.4
2018-07-20T09:55:29.870Z,0.4
2018-07-20T09:55:34.961Z,0.3
2018-07-20T09:55:55.141Z,0.3
2018-07-20T09:56:00.100Z,0.3
2018-07-20T09:56:05.232Z,0.5
2018-07-20T09:56:10.320Z,0.4
2018-07-20T09:56:15.442Z,0.6
2018-07-20T09:56:30.480Z,0.6
2018-07-20T09:56:50.710Z,0.4
2018-07-20T09:56:55.630Z,0.4
2018-07-20T09:57:00.711Z,0.3
2018-07-20T09:57:05.800Z,0.3
2018-07-20T10:08:10.648Z,0.7
2018-07-20T10:08:15.759Z,0.4
2018-07-20T10:08:20.838Z,0.2
2018-07-20T10:08:25.888Z,0.5
2018-07-20T10:08:30.998Z,0.3
2018-07-20T10:08:36.048Z,0.4
2018-07-20T10:08:41.148Z,0
2018-07-20T10:08:46.188Z,0.4
2018-07-20T10:08:51.277Z,0.3
2018-07-20T10:08:56.358Z,0.4
2018-07-20T10:09:01.458Z,0.2
2018-07-20T10:09:06.548Z,0.3
2018-07-20T10:09:11.598Z,0.5
2018-07-20T10:11:14.894Z,0.4
2018-07-20T10:11:19.945Z,0.5
2018-07-20T10:11:25.055Z,0.4
2018-07-20T10:11:30.094Z,0.5
2018-07-20T10:11:35.204Z,0.2
2018-07-20T10:26:38.626Z,0.4
2018-07-20T10:26:43.686Z,0.6
2018-07-20T10:26:48.786Z,0.5
2018-07-20T10:26:53.846Z,0.4
2018-07-20T10:26:58.966Z,0.3
2018-07-20T10:27:04.028Z,0.2
2018-07-20T10:27:09.116Z,0.4
2018-07-20T10:27:14.156Z,0.1
2018-07-20T10:27:19.286Z,0.2
2018-07-20T10:27:24.336Z,0.5
2018-07-20T10:27:29.436Z,0.6
2018-07-20T10:27:34.496Z,0.2
2018-07-20T10:27:39.587Z,0.3
2018-07-20T10:27:44.686Z,0.6
2018-07-20T10:27:49.746Z,0.4
2018-07-20T10:27:54.826Z,0.5
2018-07-20T10:27:59.907Z,0.5
2018-07-20T10:28:05.036Z,0.3
2018-07-20T10:28:10.076Z,0.4
2018-07-20T10:28:15.147Z,0.5
2018-07-20T10:28:20.276Z,0.3
2018-07-20T10:28:25.316Z,0.4
2018-07-20T10:28:30.436Z,0.4
2018-07-20T10:28:35.526Z,0.3
2018-07-20T10:28:40.556Z,0.3
2018-07-20T10:28:45.636Z,0
2018-07-20T10:28:50.727Z,0.2
2018-07-20T10:28:55.806Z,0.4
2018-07-20T10:29:00.886Z,0.6
2018-07-20T10:29:06.007Z,0.5
2018-07-20T10:29:11.066Z,0.5
2018-07-20T10:29:16.186Z,0.2
2018-07-20T10:29:21.296Z,0.4
2018-07-20T10:29:26.427Z,0.3
2018-07-20T10:29:31.536Z,0.7
2018-07-20T10:29:36.476Z,0.5
2018-07-20T10:29:41.546Z,0.4
2018-07-20T10:29:46.696Z,0.3
2018-07-20T10:29:51.776Z,0
2018-07-20T10:29:56.916Z,0.5
2018-07-20T10:30:01.916Z,0.5
2018-07-20T10:30:06.956Z,0.6
2018-07-20T10:30:12.046Z,0.4
2018-07-20T10:30:17.136Z,0.3
2018-07-20T10:30:22.206Z,0.3
2018-07-20T10:30:27.426Z,0.1
2018-07-20T10:30:33.376Z,0.3
2018-07-20T10:30:37.446Z,0.3
2018-07-20T10:30:42.515Z,0.4
2018-07-20T10:30:47.656Z,0.3
2018-07-20T10:30:52.746Z,0.3
2018-07-20T10:30:57.828Z,0.5
2018-07-20T10:31:02.956Z,0.5
2018-07-20T10:31:07.926Z,0.1
2018-07-20T10:31:12.996Z,0.4
2018-07-20T10:31:18.086Z,0.1
2018-07-20T10:31:23.157Z,0.3
2018-07-20T10:31:28.236Z,0.5
2018-07-20T10:31:33.426Z,0.2
2018-07-20T10:31:38.416Z,0.4
2018-07-20T10:31:43.486Z,0.4
2018-07-20T10:31:48.616Z,0.4
2018-07-20T10:34:20.504Z,0.3
2018-07-20T10:34:25.904Z,0.2
2018-07-20T10:34:30.664Z,0.2
2018-07-20T10:57:12.292Z,0.3
2018-07-20T10:57:17.372Z,0
2018-07-20T10:57:48.984Z,0.2
2018-07-20T10:58:57.091Z,0.5
2018-07-20T10:59:02.171Z,0.3
2018-07-20T10:59:07.271Z,1.1
2018-07-20T10:59:12.372Z,0.3
2018-07-20T10:59:17.411Z,0.3
2018-07-20T10:59:22.511Z,0.7
2018-07-20T10:59:27.612Z,0.6
2018-07-20T10:59:32.712Z,0.5
2018-07-20T10:59:37.772Z,0
2018-07-20T10:59:42.911Z,0.9
2018-07-20T11:00:50.219Z,0.1
2018-07-20T11:00:51.749Z,0.2
2018-07-20T11:06:06.861Z,0.6
2018-07-20T11:06:11.912Z,0.6
2018-07-20T11:06:17.012Z,0.4
2018-07-20T11:10:07.829Z,0.7
2018-07-20T11:10:12.987Z,0.5
2018-07-20T11:10:18.247Z,0.6
2018-07-20T11:13:14.373Z,0
2018-07-20T11:13:19.052Z,0
2018-07-20T11:13:24.101Z,0.4
2018-07-20T11:24:55.994Z,0.9
2018-07-20T11:25:01.054Z,0.2
2018-07-20T11:25:06.123Z,0.2
2018-07-20T11:25:11.253Z,0.4
2018-07-20T11:25:16.294Z,0.5
2018-07-20T11:27:48.360Z,0.1
2018-07-20T11:27:53.510Z,0.4
2018-07-20T11:27:58.619Z,0.8
2018-07-20T11:28:03.690Z,0.3
2018-07-20T11:28:08.760Z,0.9
2018-07-20T11:28:13.820Z,0.7
2018-07-20T11:28:18.890Z,0.7
2018-07-20T11:28:24.010Z,0.1
2018-07-20T11:28:29.050Z,0
2018-07-20T11:28:34.169Z,0.4
2018-07-20T11:28:39.220Z,0.7
2018-07-20T11:28:44.339Z,0.1
2018-07-20T11:28:49.389Z,0.7
2018-07-20T11:28:54.469Z,0.3
2018-07-20T11:28:59.560Z,0.1
2018-07-20T11:29:04.669Z,0.6
2018-07-20T11:29:09.740Z,0
2018-07-20T11:29:14.829Z,0.6
2018-07-20T11:29:19.949Z,0.2
2018-07-20T11:29:24.990Z,0.4
2018-07-20T11:29:30.029Z,0.4
2018-07-20T11:29:35.139Z,0.6
2018-07-20T11:29:40.230Z,0.7
2018-07-20T11:29:45.320Z,0.2
2018-07-20T11:29:50.359Z,0.5
2018-07-20T11:29:55.440Z,0.1
2018-07-20T11:30:00.510Z,0.7
2018-07-20T11:30:05.599Z,0.2
2018-07-20T11:30:10.699Z,0
2018-07-20T11:30:15.759Z,0.7
2018-07-20T11:30:20.880Z,0.4
2018-07-20T11:30:25.949Z,0.8
2018-07-20T11:30:31.060Z,0.3
2018-07-20T11:30:36.149Z,0.4
2018-07-20T11:30:41.190Z,0.3
2018-07-20T11:30:52.790Z,0.3
2018-07-20T11:30:54.030Z,0.5
2018-07-20T11:30:56.470Z,0.3
2018-07-20T11:31:01.649Z,0.7
2018-07-20T11:31:06.619Z,0.9
2018-07-20T11:31:11.699Z,0.7
2018-07-20T11:31:16.780Z,0.2
2018-07-20T11:31:21.839Z,0.4
2018-07-20T11:31:26.919Z,0.6
2018-07-20T11:33:11.435Z,0.1
2018-07-20T11:33:16.455Z,0.5
2018-07-20T11:33:21.555Z,0.3
2018-07-20T11:33:26.676Z,0.4
2018-07-20T11:33:31.736Z,0.3
2018-07-20T11:33:36.825Z,0.1
2018-07-20T11:33:41.945Z,0.3
2018-07-20T11:33:47.045Z,0.2
2018-07-20T11:33:52.085Z,0.7
2018-07-20T11:33:57.175Z,0.6
2018-07-20T11:34:02.255Z,0.5
2018-07-20T11:34:07.335Z,0.5
2018-07-20T11:34:12.595Z,0.2
2018-07-20T11:34:17.546Z,0.4
2018-07-20T11:34:22.655Z,0.3
2018-07-20T11:34:27.795Z,0.5
2018-07-20T11:34:32.795Z,0.5
2018-07-20T11:34:37.905Z,0.4
2018-07-20T11:34:42.946Z,0.5
2018-07-20T11:34:48.035Z,0.2
2018-07-20T11:34:53.086Z,0.4
2018-07-20T11:34:58.155Z,0.5
2018-07-20T11:35:03.246Z,0.6
2018-07-20T11:35:08.335Z,0.3
2018-07-20T11:35:17.902Z,0.1
2018-07-20T11:35:18.503Z,0
2018-07-20T11:35:23.603Z,0.8
2018-07-20T11:35:28.674Z,0.4
2018-07-20T11:35:33.744Z,0
2018-07-20T11:35:38.834Z,0.4
2018-07-20T11:35:43.914Z,0.4
2018-07-20T11:35:49.664Z,0.6
2018-07-20T11:35:54.733Z,0.4
2018-07-20T11:35:59.784Z,0.5
2018-07-20T11:38:04.254Z,0.2
2018-07-20T11:38:09.333Z,0.5
2018-07-20T11:38:14.513Z,0.3
2018-07-20T11:38:19.614Z,0.6
2018-07-20T11:38:24.644Z,0.5
2018-07-20T11:38:29.674Z,0.2
2018-07-20T11:38:34.784Z,0.3
2018-07-20T11:38:39.914Z,0.4
2018-07-20T11:38:44.913Z,0.6
2018-07-20T11:38:49.994Z,0.3
2018-07-20T11:39:05.273Z,0.6
2018-07-20T11:39:11.494Z,0
2018-07-20T11:39:16.540Z,0.1
2018-07-20T11:39:21.665Z,0.3
2018-07-20T11:39:26.713Z,0.3
2018-07-20T11:39:31.813Z,0.3
2018-07-20T11:39:36.893Z,0.5
2018-07-20T11:39:41.954Z,0.3
2018-07-20T11:39:47.075Z,0.4
2018-07-20T11:39:52.135Z,0.3
2018-07-20T11:39:57.343Z,0.4
2018-07-20T11:41:22.467Z,0.6
2018-07-20T11:41:27.547Z,0.7
2018-07-20T11:41:32.927Z,0.6
2018-07-20T11:41:37.707Z,0.3
2018-07-20T11:41:42.997Z,0.4
2018-07-20T11:41:47.817Z,0.3
2018-07-20T11:41:52.878Z,0.3
2018-07-20T11:41:57.957Z,0.2
2018-07-20T11:42:03.257Z,0.2
2018-07-20T11:42:08.139Z,0.4
2018-07-20T11:42:13.207Z,0.2
2018-07-20T11:42:18.308Z,0.4
